Eagle Point, Iowa
Current Conditions -  °F | °C
As of 1:10 PM on Sunday 23 Nov 2014 (Local Time) from KDBQ Reporting Station
Light Rain Light Rain  
Wind Chill: 43°   Ceiling: 300
Heat Index: 48°   Visibility: 2.5mi
Dew Point: 48°   Wind: 10mph
Humidity: 100%   Direction: 150°SSE
Pressure: 29.43"   Gusts: NA
Location:  42.549°N, 90.6988°W
Report Text: KDBQ 231910Z 15009KT 2 1/2SM -RA BR BKN003 BKN019 OVC029 09/09 A2943 RMK AO2 P0003 T00890089 $
Loading
Personal Weather Stations






























Interactive Weather Map New forecast layout! Learn more

10-Day Weather Forecast

Advertisements
Track Severe Weather on mobile